Time;durP1;ratioP1;P1;durP2;ratioP2;P2;SDS_P1;SDS_P2;PMS_P1;PMS_P2;Temp;Humidity;BMP_temperature;BMP_pressure;BME280_temperature;BME280_humidity;BME280_pressure;Samples;Min_cycle;Max_cycle;Signal;HPM_P1;HPM_P2
2021/10/19 00:00:13;;;;;;;17.80;14.00;;;;;;;11.12;80.99;101368.56;683737;28;1273;-54
2021/10/19 00:00:33;;;;;;;17.35;13.70;;;;;;;11.17;81.36;101371.19;682729;28;2100;-55
2021/10/19 00:00:54;;;;;;;17.98;14.20;;;;;;;11.16;80.98;101370.34;682486;28;4348;-59
2021/10/19 00:01:14;;;;;;;17.23;13.87;;;;;;;11.12;81.33;101371.19;685161;28;1137;-53
2021/10/19 00:01:35;;;;;;;18.67;14.52;;;;;;;11.04;81.93;101367.66;681919;28;3400;-54
2021/10/19 00:01:55;;;;;;;18.93;13.97;;;;;;;11.02;81.91;101365.03;680203;28;3922;-56
2021/10/19 00:02:15;;;;;;;17.92;14.30;;;;;;;11.01;81.72;101370.28;680110;28;1499;-56
2021/10/19 00:02:36;;;;;;;17.27;14.77;;;;;;;10.98;82.15;101365.00;682837;28;1354;-51
2021/10/19 00:02:56;;;;;;;17.58;14.20;;;;;;;10.95;81.99;101372.84;684235;28;1317;-55
2021/10/19 00:03:17;;;;;;;17.73;14.10;;;;;;;11.00;82.36;101366.75;683772;28;1268;-51
2021/10/19 00:03:37;;;;;;;17.60;13.70;;;;;;;11.04;81.83;101370.28;686450;28;1370;-53
2021/10/19 00:03:57;;;;;;;16.90;14.13;;;;;;;11.06;81.93;101371.16;686930;28;4502;-55
2021/10/19 00:04:20;;;;;;;16.70;14.23;;;;;;;11.08;81.80;101369.44;687349;28;1121;-51
2021/10/19 00:04:40;;;;;;;16.95;14.40;;;;;;;11.24;81.25;101373.84;688189;28;1283;-55
2021/10/19 00:05:01;;;;;;;17.17;14.50;;;;;;;11.38;80.56;101365.16;687541;28;3941;-55
2021/10/19 00:05:21;;;;;;;18.05;14.10;;;;;;;11.53;79.87;101370.47;688420;28;984;-55
2021/10/19 00:05:42;;;;;;;17.73;14.17;;;;;;;11.63;79.57;101366.13;687812;28;1390;-52
2021/10/19 00:06:03;;;;;;;18.17;14.18;;;;;;;11.61;79.16;101361.75;687325;28;1088;-54
2021/10/19 00:06:23;;;;;;;17.88;14.15;;;;;;;11.66;79.08;101360.00;687560;28;1196;-52
2021/10/19 00:06:44;;;;;;;16.45;13.90;;;;;;;11.61;79.35;101364.38;684860;28;1188;-51
2021/10/19 00:07:04;;;;;;;17.53;14.50;;;;;;;11.59;79.42;101365.22;684153;28;4533;-55
2021/10/19 00:07:25;;;;;;;17.33;14.40;;;;;;;11.59;79.26;101362.59;684151;28;1268;-56
2021/10/19 00:07:46;;;;;;;17.53;14.13;;;;;;;11.53;79.77;101366.94;684268;28;1165;-54
2021/10/19 00:08:06;;;;;;;17.35;13.90;;;;;;;11.50;79.85;101367.81;685495;28;1018;-52
2021/10/19 00:08:26;;;;;;;15.80;13.43;;;;;;;11.55;79.88;101368.72;685071;28;3204;-55
2021/10/19 00:08:47;;;;;;;16.90;13.53;;;;;;;11.48;79.68;101369.56;687130;28;3335;-54
2021/10/19 00:09:07;;;;;;;17.42;13.73;;;;;;;11.38;80.25;101371.28;688441;28;1318;-52
2021/10/19 00:09:28;;;;;;;17.67;14.47;;;;;;;11.33;80.23;101372.16;686993;28;1196;-54
2021/10/19 00:09:48;;;;;;;16.90;13.77;;;;;;;11.25;80.86;101370.34;686183;28;4590;-53
2021/10/19 00:10:12;;;;;;;17.27;13.67;;;;;;;11.23;80.99;101376.47;687544;28;1298;-51
2021/10/19 00:10:32;;;;;;;16.35;13.52;;;;;;;11.16;81.47;101374.69;687880;28;1053;-55
2021/10/19 00:10:52;;;;;;;18.33;14.20;;;;;;;11.14;81.84;101374.66;687316;28;1072;-54
2021/10/19 00:11:13;;;;;;;17.88;13.98;;;;;;;11.17;81.29;101372.09;688151;28;1045;-56
2021/10/19 00:11:33;;;;;;;16.90;13.70;;;;;;;11.15;81.34;101370.34;686907;28;1091;-56
2021/10/19 00:11:54;;;;;;;16.90;13.90;;;;;;;11.13;81.45;101377.28;687095;28;1548;-54
2021/10/19 00:12:14;;;;;;;16.50;13.83;;;;;;;11.08;81.97;101372.03;684068;28;4071;-52
2021/10/19 00:12:35;;;;;;;17.03;14.33;;;;;;;11.17;81.89;101372.09;685210;28;1301;-56
2021/10/19 00:12:55;;;;;;;16.67;14.10;;;;;;;11.28;81.41;101372.09;684090;28;4373;-51
2021/10/19 00:13:15;;;;;;;16.63;14.00;;;;;;;11.31;81.05;101363.41;683207;28;1310;-53
2021/10/19 00:13:37;;;;;;;17.53;14.03;;;;;;;11.25;81.12;101370.34;681940;28;1259;-52
2021/10/19 00:13:57;;;;;;;17.95;13.90;;;;;;;11.21;81.28;101365.97;682120;28;1285;-55
2021/10/19 00:14:17;;;;;;;18.95;14.40;;;;;;;11.25;81.20;101370.34;686804;28;1191;-52
2021/10/19 00:14:38;;;;;;;17.77;13.90;;;;;;;11.32;80.96;101365.16;685877;28;1327;-53
2021/10/19 00:14:58;;;;;;;18.33;13.63;;;;;;;11.38;80.79;101365.16;686250;28;1374;-53
2021/10/19 00:15:19;;;;;;;18.27;13.85;;;;;;;11.33;80.56;101369.53;687131;28;1180;-54
2021/10/19 00:15:39;;;;;;;16.98;13.75;;;;;;;11.40;80.57;101373.91;685773;28;3548;-55
2021/10/19 00:16:00;;;;;;;17.17;13.83;;;;;;;11.43;80.58;101368.69;687044;28;4497;-56
2021/10/19 00:16:21;;;;;;;16.92;14.00;;;;;;;11.36;80.59;101365.16;686887;28;1454;-54
2021/10/19 00:16:41;;;;;;;16.35;13.43;;;;;;;11.37;80.75;101366.91;686722;28;2917;-55
2021/10/19 00:17:01;;;;;;;16.63;13.67;;;;;;;11.54;80.21;101366.94;687282;28;1136;-52
2021/10/19 00:17:22;;;;;;;16.57;13.77;;;;;;;11.57;80.00;101363.47;686996;28;1298;-54
2021/10/19 00:17:44;;;;;;;16.43;13.43;;;;;;;11.61;79.97;101364.38;683818;28;1413;-52
2021/10/19 00:18:05;;;;;;;16.00;13.60;;;;;;;11.54;79.74;101361.72;682684;28;1165;-56
2021/10/19 00:18:25;;;;;;;15.68;13.25;;;;;;;11.54;80.08;101360.84;682753;28;1339;-52
2021/10/19 00:18:45;;;;;;;16.53;12.90;;;;;;;11.61;79.48;101361.75;682859;28;1057;-54
2021/10/19 00:19:06;;;;;;;17.08;13.38;;;;;;;11.63;79.57;101352.13;682174;28;4291;-52
2021/10/19 00:19:26;;;;;;;17.07;13.77;;;;;;;11.70;79.39;101360.03;682566;28;4050;-53
2021/10/19 00:19:46;;;;;;;15.85;13.02;;;;;;;11.60;79.30;101355.63;684591;28;1494;-54
2021/10/19 00:20:11;;;;;;;16.03;12.73;;;;;;;11.54;79.60;101359.09;687452;28;1363;-55
2021/10/19 00:20:32;;;;;;;17.02;13.32;;;;;;;11.47;80.25;101353.84;687625;28;1021;-52
2021/10/19 00:20:52;;;;;;;16.23;13.17;;;;;;;11.41;80.24;101359.97;686944;28;1200;-55
2021/10/19 00:21:12;;;;;;;16.90;13.40;;;;;;;11.36;80.35;101351.22;687239;28;1097;-53
2021/10/19 00:21:33;;;;;;;18.07;13.67;;;;;;;11.33;80.93;101346.84;684765;28;1078;-52
2021/10/19 00:21:53;;;;;;;17.27;13.60;;;;;;;11.41;80.63;101355.59;683495;28;4636;-54
2021/10/19 00:22:14;;;;;;;16.10;13.43;;;;;;;11.50;80.04;101354.72;684105;28;3191;-51
2021/10/19 00:22:34;;;;;;;16.27;13.02;;;;;;;11.57;79.82;101361.75;683643;28;3445;-54
2021/10/19 00:22:55;;;;;;;16.20;13.00;;;;;;;11.53;80.17;101353.84;684436;28;1416;-55
2021/10/19 00:23:15;;;;;;;16.38;13.10;;;;;;;11.58;80.13;101358.22;683996;28;1648;-52
2021/10/19 00:23:36;;;;;;;15.98;12.95;;;;;;;11.59;80.12;101354.75;684229;28;1488;-51
2021/10/19 00:23:56;;;;;;;16.07;12.80;;;;;;;11.58;79.72;101353.00;684309;28;1864;-53
2021/10/19 00:24:16;;;;;;;17.60;13.27;;;;;;;11.52;80.16;101353.00;684457;28;1276;-53
2021/10/19 00:24:37;;;;;;;16.97;13.23;;;;;;;11.45;80.66;101356.47;684238;28;1339;-52
2021/10/19 00:24:57;;;;;;;16.83;12.97;;;;;;;11.55;80.15;101350.38;683276;28;4378;-55
2021/10/19 00:25:18;;;;;;;16.60;12.88;;;;;;;11.59;80.01;101346.03;683449;28;1205;-52
2021/10/19 00:25:38;;;;;;;16.00;12.80;;;;;;;11.61;79.76;101351.28;686250;28;1339;-51
2021/10/19 00:25:59;;;;;;;14.98;12.40;;;;;;;11.73;79.30;101357.41;685208;28;3034;-51
2021/10/19 00:26:20;;;;;;;14.87;12.47;;;;;;;11.72;79.14;101354.78;685496;28;1149;-55
2021/10/19 00:26:40;;;;;;;16.02;12.85;;;;;;;11.60;79.90;101350.38;685813;28;1299;-51
2021/10/19 00:27:02;;;;;;;15.98;13.05;;;;;;;11.56;80.43;101353.84;683764;28;1343;-52
2021/10/19 00:27:22;;;;;;;16.35;13.05;;;;;;;11.56;80.18;101349.53;686219;28;1427;-50
2021/10/19 00:27:44;;;;;;;16.07;13.57;;;;;;;11.62;80.13;101340.78;686052;28;1104;-54
2021/10/19 00:28:04;;;;;;;15.80;13.00;;;;;;;11.65;79.69;101339.94;682616;28;4430;-53
2021/10/19 00:28:25;;;;;;;15.00;12.43;;;;;;;11.78;79.12;101344.28;683236;28;1220;-51
2021/10/19 00:28:45;;;;;;;15.02;12.73;;;;;;;11.80;79.01;101342.56;682974;28;1104;-54
2021/10/19 00:29:05;;;;;;;15.63;12.77;;;;;;;11.77;79.02;101345.19;684417;28;1133;-55
2021/10/19 00:29:26;;;;;;;16.02;12.70;;;;;;;11.72;79.09;101342.53;683701;28;2135;-54
2021/10/19 00:29:46;;;;;;;15.47;12.83;;;;;;;11.78;79.00;101344.28;683221;28;1317;-52
2021/10/19 00:30:09;;;;;;;15.07;12.60;;;;;;;11.83;78.95;101339.94;685914;28;1115;-52
2021/10/19 00:30:30;;;;;;;16.05;12.63;;;;;;;11.92;78.51;101337.34;686442;28;1462;-51
2021/10/19 00:30:51;;;;;;;15.50;12.45;;;;;;;11.96;78.31;101338.22;685396;28;4562;-51
2021/10/19 00:31:11;;;;;;;15.77;12.43;;;;;;;11.93;78.53;101338.19;686247;28;1228;-53
2021/10/19 00:31:31;;;;;;;15.60;12.90;;;;;;;11.88;78.36;101346.06;686266;28;1460;-54
2021/10/19 00:31:52;;;;;;;14.50;12.77;;;;;;;11.76;78.97;101339.06;686477;28;1325;-54
2021/10/19 00:32:13;;;;;;;14.27;12.35;;;;;;;11.77;79.25;101345.19;687878;28;1146;-53
2021/10/19 00:32:33;;;;;;;15.67;12.73;;;;;;;11.75;79.25;101342.56;687634;28;1328;-53
2021/10/19 00:32:53;;;;;;;15.20;12.60;;;;;;;11.72;79.90;101349.53;687102;28;3097;-50
2021/10/19 00:33:14;;;;;;;15.67;12.70;;;;;;;11.70;79.82;101341.69;687144;28;1053;-50
2021/10/19 00:33:34;;;;;;;15.40;12.50;;;;;;;11.79;79.50;101347.81;687468;28;1473;-52
2021/10/19 00:33:55;;;;;;;14.93;12.43;;;;;;;11.75;79.05;101344.28;685185;28;4441;-53
2021/10/19 00:34:15;;;;;;;14.98;12.60;;;;;;;11.66;79.69;101341.66;686131;28;1285;-51
2021/10/19 00:34:35;;;;;;;15.60;12.10;;;;;;;11.58;79.98;101341.66;685619;28;1081;-53
2021/10/19 00:34:56;;;;;;;15.80;12.10;;;;;;;11.52;80.32;101344.25;685983;28;1355;-51
2021/10/19 00:35:16;;;;;;;16.07;12.50;;;;;;;11.49;80.44;101342.53;685365;28;1634;-51
2021/10/19 00:35:37;;;;;;;14.93;12.40;;;;;;;11.47;80.62;101340.78;683605;28;1100;-51
2021/10/19 00:35:57;;;;;;;16.02;12.35;;;;;;;11.44;80.61;101339.00;684204;28;1251;-53
2021/10/19 00:36:17;;;;;;;15.90;12.60;;;;;;;11.48;80.87;101334.63;684612;28;3694;-51
2021/10/19 00:36:37;;;;;;;16.10;12.90;;;;;;;11.41;81.03;101336.41;683350;28;4165;-55
2021/10/19 00:36:58;;;;;;;16.30;12.90;;;;;;;11.38;81.22;101338.97;685272;28;4467;-51
2021/10/19 00:37:18;;;;;;;15.40;12.23;;;;;;;11.33;81.07;101335.50;686223;28;1134;-52
2021/10/19 00:37:39;;;;;;;15.05;11.98;;;;;;;11.31;81.50;101332.88;687679;28;1129;-55
2021/10/19 00:37:59;;;;;;;15.60;12.70;;;;;;;11.28;81.86;101324.13;688206;28;1141;-51
2021/10/19 00:38:19;;;;;;;15.57;13.15;;;;;;;11.42;81.11;101330.25;688025;28;1310;-50
2021/10/19 00:38:40;;;;;;;15.67;12.60;;;;;;;11.52;80.78;101328.53;687630;28;1125;-53
2021/10/19 00:39:00;;;;;;;16.47;12.70;;;;;;;11.47;80.64;101328.53;688144;28;3616;-54
2021/10/19 00:39:20;;;;;;;14.95;12.23;;;;;;;11.40;81.09;101330.25;688486;28;1374;-54
2021/10/19 00:39:41;;;;;;;14.83;12.50;;;;;;;11.42;80.93;101335.50;687180;28;2083;-53
2021/10/19 00:40:02;;;;;;;14.88;12.45;;;;;;;11.50;80.89;101328.53;687434;28;4401;-51
2021/10/19 00:40:23;;;;;;;14.73;12.27;;;;;;;11.48;80.82;101334.63;687537;28;1149;-52
2021/10/19 00:40:43;;;;;;;15.85;12.30;;;;;;;11.61;80.75;101332.94;688079;28;1088;-52
2021/10/19 00:41:04;;;;;;;15.00;12.10;;;;;;;11.73;80.04;101335.59;687481;28;1358;-53
2021/10/19 00:41:24;;;;;;;14.02;11.73;;;;;;;11.82;79.69;101330.31;688412;28;1143;-52
2021/10/19 00:41:44;;;;;;;14.53;12.17;;;;;;;11.86;79.46;101334.69;687702;28;1057;-51
2021/10/19 00:42:05;;;;;;;16.25;12.80;;;;;;;11.90;79.07;101333.81;688212;28;998;-53
2021/10/19 00:42:25;;;;;;;15.43;12.30;;;;;;;11.88;78.93;101332.97;687958;28;1239;-51
2021/10/19 00:42:46;;;;;;;16.50;12.45;;;;;;;11.86;79.13;101333.84;687702;28;1284;-51
2021/10/19 00:43:06;;;;;;;14.83;12.30;;;;;;;11.82;79.17;101334.72;686928;28;4413;-52
2021/10/19 00:43:27;;;;;;;14.00;12.00;;;;;;;11.74;79.57;101332.97;688319;28;3436;-55
2021/10/19 00:43:48;;;;;;;15.37;11.93;;;;;;;11.70;79.99;101335.56;687560;28;1659;-51
2021/10/19 00:44:08;;;;;;;15.73;12.05;;;;;;;11.83;79.43;101337.31;688618;28;1203;-51
2021/10/19 00:44:28;;;;;;;15.15;12.00;;;;;;;11.98;78.47;101331.25;688241;28;1550;-49
2021/10/19 00:44:49;;;;;;;15.67;12.43;;;;;;;11.99;78.34;101337.34;687279;28;1350;-51
2021/10/19 00:45:09;;;;;;;16.10;12.90;;;;;;;11.90;78.62;101332.97;687502;28;1914;-51
2021/10/19 00:45:30;;;;;;;15.80;12.53;;;;;;;11.89;79.35;101332.09;687828;28;1527;-50
2021/10/19 00:45:50;;;;;;;15.55;12.18;;;;;;;11.95;78.72;101333.88;684829;28;4424;-52
2021/10/19 00:46:14;;;;;;;14.53;11.90;;;;;;;11.89;78.93;101331.22;685906;28;1226;-52
2021/10/19 00:46:34;;;;;;;14.20;11.65;;;;;;;11.87;79.12;101319.88;682836;28;1128;-52
2021/10/19 00:46:57;;;;;;;14.90;12.20;;;;;;;11.78;79.43;101327.72;682202;28;3685;-52
2021/10/19 00:47:22;;;;;;;14.55;12.20;;;;;;;11.84;79.17;101331.22;682954;28;1375;-52
2021/10/19 00:47:52;;;;;;;13.98;11.75;;;;;;;11.84;79.39;101318.13;684354;28;1667;-55
2021/10/19 00:48:16;;;;;;;14.27;11.85;;;;;;;11.93;78.65;101328.63;683571;28;1377;-51
2021/10/19 00:48:38;;;;;;;15.40;12.20;;;;;;;11.83;79.37;101318.97;684907;28;1243;-53
2021/10/19 00:48:59;;;;;;;15.52;11.90;;;;;;;11.76;79.72;101318.09;684375;28;4596;-54
2021/10/19 00:49:19;;;;;;;15.27;12.07;;;;;;;11.70;79.84;101314.59;684709;28;1291;-51
2021/10/19 00:49:40;;;;;;;16.00;12.30;;;;;;;11.64;80.29;101325.09;685877;28;1254;-54
2021/10/19 00:50:02;;;;;;;15.20;12.13;;;;;;;11.62;80.43;101327.69;685494;28;1323;-53
2021/10/19 00:50:23;;;;;;;14.55;12.35;;;;;;;11.60;80.50;101321.56;685809;28;3692;-52
2021/10/19 00:50:45;;;;;;;15.40;12.30;;;;;;;11.70;80.20;101314.59;687717;28;1194;-51
2021/10/19 00:51:07;;;;;;;14.75;11.88;;;;;;;11.63;80.66;101321.59;686153;28;1230;-50
2021/10/19 00:51:30;;;;;;;14.60;11.77;;;;;;;11.83;79.44;101324.22;687375;28;1271;-52
2021/10/19 00:51:52;;;;;;;15.10;11.80;;;;;;;11.90;79.21;101328.59;685061;28;4425;-55
2021/10/19 00:52:14;;;;;;;15.20;12.25;;;;;;;11.89;79.60;101321.63;687206;28;1082;-55
2021/10/19 00:52:35;;;;;;;16.45;12.32;;;;;;;11.88;79.34;101327.72;687246;28;1057;-50
2021/10/19 00:52:57;;;;;;;15.02;12.43;;;;;;;11.89;78.81;101326.88;688301;28;1133;-51
2021/10/19 00:53:18;;;;;;;15.52;12.38;;;;;;;11.89;79.03;101331.22;688136;28;1356;-52
2021/10/19 00:53:38;;;;;;;14.10;12.18;;;;;;;11.92;78.60;101324.25;687932;28;1354;-52
2021/10/19 00:53:58;;;;;;;15.10;12.43;;;;;;;11.93;78.83;101325.09;686897;28;2059;-52
2021/10/19 00:54:22;;;;;;;15.75;12.02;;;;;;;11.87;79.09;101325.97;685911;28;1195;-56
2021/10/19 00:54:43;;;;;;;15.38;11.93;;;;;;;11.80;79.39;101320.75;682807;28;1032;-54
2021/10/19 00:55:07;;;;;;;14.30;12.00;;;;;;;11.72;79.68;101329.44;682373;28;4830;-51
2021/10/19 00:55:28;;;;;;;13.95;11.73;;;;;;;11.66;80.03;101329.47;683256;28;1204;-54
2021/10/19 00:55:49;;;;;;;14.63;12.00;;;;;;;11.66;80.42;101325.94;682820;28;1265;-55
2021/10/19 00:56:10;;;;;;;15.27;12.53;;;;;;;11.65;80.35;101329.47;685202;28;1342;-53
2021/10/19 00:56:30;;;;;;;14.98;11.70;;;;;;;11.74;79.99;101332.06;687441;28;1387;-60
2021/10/19 00:56:54;;;;;;;13.85;11.43;;;;;;;11.68;79.86;101326.84;688305;28;1019;-54
2021/10/19 00:57:15;;;;;;;14.48;11.70;;;;;;;11.68;80.44;101332.06;686892;28;1255;-51
2021/10/19 00:57:36;;;;;;;15.18;12.32;;;;;;;11.71;80.20;101332.06;686872;28;3478;-52
2021/10/19 00:57:56;;;;;;;15.75;12.15;;;;;;;11.65;80.36;101329.47;685546;28;4415;-55
2021/10/19 00:58:17;;;;;;;14.93;11.70;;;;;;;11.57;80.75;101335.56;687084;28;1121;-53
2021/10/19 00:58:38;;;;;;;13.18;11.57;;;;;;;11.59;80.86;101338.19;686060;28;1271;-51
2021/10/19 00:58:59;;;;;;;14.98;11.93;;;;;;;11.63;80.60;101331.19;686494;28;1287;-52
2021/10/19 00:59:20;;;;;;;15.97;11.90;;;;;;;11.83;79.83;101329.47;687121;28;1346;-55
2021/10/19 00:59:46;;;;;;;16.10;12.20;;;;;;;11.95;79.25;101322.50;686314;28;1292;-52
2021/10/19 01:00:08;;;;;;;14.73;12.07;;;;;;;11.89;79.21;101325.97;687395;28;1547;-52
2021/10/19 01:00:29;;;;;;;15.95;12.55;;;;;;;11.90;79.07;101333.81;688220;28;1299;-52
2021/10/19 01:00:49;;;;;;;15.27;12.47;;;;;;;11.83;79.47;101337.31;687420;28;4601;-54
2021/10/19 01:01:10;;;;;;;15.30;12.50;;;;;;;11.76;79.80;101327.72;687656;28;1362;-52
2021/10/19 01:01:30;;;;;;;15.17;12.33;;;;;;;11.73;79.77;101333.81;688608;28;1235;-56
2021/10/19 01:01:51;;;;;;;15.77;12.37;;;;;;;11.69;79.97;101336.44;686855;28;1319;-54
2021/10/19 01:02:15;;;;;;;15.23;12.60;;;;;;;11.71;79.80;101332.97;687827;28;1235;-55
2021/10/19 01:02:37;;;;;;;14.30;12.20;;;;;;;11.65;80.27;101332.06;686755;28;1192;-52
2021/10/19 01:02:58;;;;;;;14.35;11.95;;;;;;;11.73;80.32;101335.59;687762;28;1030;-51
2021/10/19 01:03:18;;;;;;;15.55;12.07;;;;;;;11.79;79.77;101330.34;688031;28;1282;-54
2021/10/19 01:03:39;;;;;;;15.00;11.93;;;;;;;11.73;80.16;101335.59;686917;28;1026;-56
2021/10/19 01:03:59;;;;;;;15.13;11.93;;;;;;;11.72;80.25;101336.44;686597;28;4480;-51
2021/10/19 01:04:19;;;;;;;14.88;12.07;;;;;;;11.66;80.30;101339.03;687877;28;2264;-51
2021/10/19 01:04:41;;;;;;;14.20;11.73;;;;;;;11.61;80.62;101327.69;687033;28;1184;-52
2021/10/19 01:05:04;;;;;;;15.23;12.00;;;;;;;11.60;80.60;101329.44;688532;28;1910;-53
2021/10/19 01:05:25;;;;;;;15.38;11.95;;;;;;;11.55;80.57;101337.28;685661;28;1105;-52
2021/10/19 01:05:45;;;;;;;15.45;12.05;;;;;;;11.51;80.92;101338.16;683160;28;1240;-51
2021/10/19 01:06:07;;;;;;;15.67;12.63;;;;;;;11.55;80.76;101337.28;683213;28;1145;-53
2021/10/19 01:06:27;;;;;;;14.85;12.23;;;;;;;11.76;79.96;101336.44;683985;28;1136;-52
2021/10/19 01:06:48;;;;;;;15.05;12.15;;;;;;;11.84;79.79;101328.59;682609;28;4607;-51
2021/10/19 01:07:09;;;;;;;16.07;12.63;;;;;;;11.76;80.12;101336.44;683949;28;1316;-55
2021/10/19 01:07:30;;;;;;;14.75;11.90;;;;;;;11.70;80.01;101336.44;685567;28;3079;-55
2021/10/19 01:07:51;;;;;;;14.20;12.35;;;;;;;11.65;80.56;101332.06;686198;28;3401;-51
2021/10/19 01:08:11;;;;;;;15.00;12.30;;;;;;;11.79;79.85;101335.56;688302;28;1053;-52
2021/10/19 01:08:32;;;;;;;14.60;12.30;;;;;;;11.93;79.22;101333.84;688689;28;1155;-52
2021/10/19 01:08:53;;;;;;;13.90;12.37;;;;;;;11.96;79.25;101332.13;687433;28;1136;-56
2021/10/19 01:09:13;;;;;;;14.13;12.30;;;;;;;11.85;79.50;101330.34;687280;28;1128;-51
2021/10/19 01:09:36;;;;;;;15.50;12.03;;;;;;;11.83;79.66;101331.22;687495;28;1277;-54
2021/10/19 01:09:56;;;;;;;15.80;12.07;;;;;;;11.76;80.04;101336.44;687314;28;4471;-52
2021/10/19 01:10:17;;;;;;;15.23;11.83;;;;;;;11.75;79.88;101333.81;688332;28;1398;-53
2021/10/19 01:10:38;;;;;;;14.77;11.80;;;;;;;11.75;80.05;101320.72;687588;28;1173;-52
2021/10/19 01:10:58;;;;;;;15.50;12.00;;;;;;;11.70;80.34;101331.22;687342;28;2999;-51
2021/10/19 01:11:19;;;;;;;16.10;12.77;;;;;;;11.67;80.49;101327.69;686884;28;4279;-55
2021/10/19 01:11:39;;;;;;;15.57;12.30;;;;;;;11.62;80.86;101329.47;687600;28;1519;-54
2021/10/19 01:12:00;;;;;;;15.32;12.57;;;;;;;11.59;80.93;101332.94;687516;28;1410;-53
2021/10/19 01:12:21;;;;;;;15.43;12.60;;;;;;;11.57;81.00;101330.31;687611;28;1548;-57
2021/10/19 01:12:42;;;;;;;15.25;12.70;;;;;;;11.60;80.73;101329.44;686806;28;1429;-51
2021/10/19 01:13:02;;;;;;;15.70;12.38;;;;;;;11.71;80.45;101332.97;686457;28;4503;-52
2021/10/19 01:13:23;;;;;;;15.00;12.65;;;;;;;11.72;80.47;101333.81;688327;28;1068;-51
2021/10/19 01:13:44;;;;;;;14.70;12.70;;;;;;;11.65;80.28;101322.47;688422;28;1291;-53
2021/10/19 01:14:04;;;;;;;14.83;12.40;;;;;;;11.63;80.71;101331.19;686665;28;1242;-51
2021/10/19 01:14:24;;;;;;;14.88;11.98;;;;;;;11.82;80.09;101325.09;688174;28;1218;-51
2021/10/19 01:14:45;;;;;;;14.13;11.83;;;;;;;11.89;79.93;101328.59;686898;28;2224;-52
2021/10/19 01:15:14;;;;;;;14.00;12.07;;;;;;;11.82;79.95;101327.72;687565;28;1240;-51
2021/10/19 01:15:35;;;;;;;15.85;12.43;;;;;;;11.78;80.14;101336.44;688354;28;1132;-55
2021/10/19 01:16:09;;;;;;;15.30;12.00;;;;;;;11.74;80.32;101327.72;687225;28;4743;-52
2021/10/19 01:16:30;;;;;;;15.60;12.05;;;;;;;11.70;80.62;101332.94;687085;28;1347;-51
2021/10/19 01:16:50;;;;;;;16.15;12.23;;;;;;;11.85;80.46;101325.13;688884;28;1330;-51
2021/10/19 01:17:11;;;;;;;14.63;12.17;;;;;;;11.87;80.27;101318.13;688102;28;1326;-52
2021/10/19 01:17:32;;;;;;;15.40;12.57;;;;;;;11.82;80.60;101322.47;687205;28;1271;-50
2021/10/19 01:17:52;;;;;;;16.17;12.43;;;;;;;11.89;79.81;101324.25;688783;28;1020;-51
2021/10/19 01:18:15;;;;;;;15.57;12.20;;;;;;;11.85;79.72;101324.22;686896;28;3773;-52
2021/10/19 01:18:37;;;;;;;16.30;12.40;;;;;;;11.78;80.23;101327.72;684078;28;1087;-51
2021/10/19 01:18:57;;;;;;;17.13;12.45;;;;;;;11.70;80.74;101331.22;684679;28;5406;-53
2021/10/19 01:19:25;;;;;;;14.27;12.33;;;;;;;11.79;80.57;101337.34;685255;28;1015;-54
2021/10/19 01:19:49;;;;;;;15.40;12.80;;;;;;;11.98;79.67;101335.63;685401;28;998;-54
2021/10/19 01:20:26;;;;;;;14.75;12.50;;;;;;;11.94;79.98;101334.75;683563;28;1999;-53
2021/10/19 01:20:46;;;;;;;15.20;12.63;;;;;;;11.87;80.01;101332.97;683070;28;1237;-55
2021/10/19 01:21:08;;;;;;;16.17;12.50;;;;;;;11.81;80.44;101331.22;682790;28;1067;-51
2021/10/19 01:21:28;;;;;;;15.50;12.48;;;;;;;11.77;80.55;101337.34;682434;28;3948;-51
2021/10/19 01:21:53;;;;;;;13.98;12.32;;;;;;;11.72;80.52;101333.81;679936;29;4358;-57
2021/10/19 01:22:14;;;;;;;14.05;11.95;;;;;;;11.66;80.85;101336.41;683603;28;1316;-54
2021/10/19 01:22:34;;;;;;;14.38;12.15;;;;;;;11.71;80.73;101337.31;681992;28;1383;-56
2021/10/19 01:22:57;;;;;;;14.20;12.17;;;;;;;11.65;81.06;101337.31;684052;28;1226;-56
2021/10/19 01:23:17;;;;;;;13.90;12.25;;;;;;;11.59;81.16;101338.19;684178;28;1625;-52
2021/10/19 01:23:38;;;;;;;14.70;12.30;;;;;;;11.57;81.30;101332.94;684028;28;1268;-52
2021/10/19 01:23:58;;;;;;;14.15;12.40;;;;;;;11.54;81.61;101332.91;685595;28;1271;-52
2021/10/19 01:24:19;;;;;;;14.80;12.80;;;;;;;11.55;81.52;101333.81;686190;28;1213;-55
2021/10/19 01:24:40;;;;;;;15.05;12.82;;;;;;;11.58;81.32;101341.66;684073;28;1263;-52
2021/10/19 01:25:01;;;;;;;15.20;12.48;;;;;;;11.56;81.63;101333.81;683510;28;4486;-53
2021/10/19 01:25:24;;;;;;;14.45;12.23;;;;;;;11.72;80.53;101333.81;683749;28;2326;-52
2021/10/19 01:25:45;;;;;;;15.52;12.70;;;;;;;11.72;80.37;101334.69;682868;28;1515;-56
2021/10/19 01:26:07;;;;;;;15.35;12.65;;;;;;;11.67;80.66;101331.22;684698;28;1195;-51
2021/10/19 01:26:28;;;;;;;15.32;12.50;;;;;;;11.62;81.15;101332.94;685301;28;1333;-52
2021/10/19 01:26:48;;;;;;;14.37;12.40;;;;;;;11.68;81.07;101335.56;687013;28;1061;-52
2021/10/19 01:27:08;;;;;;;13.82;11.95;;;;;;;11.65;81.10;101332.94;688617;28;1346;-55
2021/10/19 01:27:29;;;;;;;14.33;12.23;;;;;;;11.59;81.27;101328.56;687548;28;1270;-53
2021/10/19 01:27:52;;;;;;;14.90;12.20;;;;;;;11.57;81.46;101329.44;687104;28;4761;-51
2021/10/19 01:28:12;;;;;;;15.48;11.88;;;;;;;11.64;81.16;101319.84;687493;28;1117;-51
2021/10/19 01:28:34;;;;;;;15.73;12.57;;;;;;;11.69;80.82;101333.81;687218;28;3363;-53
2021/10/19 01:28:55;;;;;;;15.05;12.50;;;;;;;11.64;81.13;101325.09;686713;28;1141;-55
2021/10/19 01:29:18;;;;;;;15.85;12.30;;;;;;;11.65;81.56;101327.69;683810;28;1293;-54
2021/10/19 01:29:39;;;;;;;14.25;11.77;;;;;;;11.65;80.81;101324.22;682722;28;1437;-51
2021/10/19 01:29:59;;;;;;;13.90;12.20;;;;;;;11.69;80.73;101328.59;683998;28;1311;-56
2021/10/19 01:30:20;;;;;;;15.63;12.30;;;;;;;11.75;80.87;101323.34;683712;28;995;-52
2021/10/19 01:30:46;;;;;;;15.13;11.73;;;;;;;11.89;80.30;101331.22;683628;28;1515;-53
2021/10/19 01:31:06;;;;;;;15.27;12.20;;;;;;;11.83;80.22;101333.84;685451;28;4454;-53
2021/10/19 01:31:27;;;;;;;14.47;12.30;;;;;;;11.76;80.60;101341.69;687784;28;1129;-52
2021/10/19 01:31:49;;;;;;;14.20;12.30;;;;;;;11.79;80.44;101339.94;688227;28;2025;-55
2021/10/19 01:32:10;;;;;;;15.98;12.63;;;;;;;11.72;80.74;101339.91;688802;28;2108;-51
2021/10/19 01:32:30;;;;;;;15.70;12.70;;;;;;;11.81;81.00;101333.84;686722;28;1455;-51
2021/10/19 01:32:52;;;;;;;14.38;12.38;;;;;;;11.78;80.71;101339.06;682336;28;2692;-51
2021/10/19 01:33:13;;;;;;;14.18;11.93;;;;;;;11.75;80.64;101339.06;683444;28;1560;-56
2021/10/19 01:33:34;;;;;;;15.32;12.43;;;;;;;11.70;80.97;101340.78;683203;28;1236;-53
2021/10/19 01:33:54;;;;;;;15.27;12.60;;;;;;;11.67;80.83;101340.78;681953;28;4365;-59
2021/10/19 01:34:15;;;;;;;14.77;12.55;;;;;;;11.72;81.07;101344.31;684179;28;1304;-54
2021/10/19 01:34:36;;;;;;;16.08;12.70;;;;;;;11.73;80.92;101340.81;685623;28;1129;-56
2021/10/19 01:34:56;;;;;;;15.35;12.40;;;;;;;11.70;81.15;101340.78;686385;28;1380;-51
2021/10/19 01:35:17;;;;;;;16.07;12.00;;;;;;;11.65;81.11;101342.56;683939;28;1252;-53
2021/10/19 01:35:43;;;;;;;14.82;12.25;;;;;;;11.60;81.33;101342.53;683159;28;3434;-55
2021/10/19 01:36:03;;;;;;;15.70;12.60;;;;;;;11.59;81.77;101332.94;683441;28;1145;-55
2021/10/19 01:36:24;;;;;;;16.00;12.33;;;;;;;11.67;81.72;101335.56;683441;28;1305;-51
2021/10/19 01:36:45;;;;;;;14.90;12.80;;;;;;;11.74;81.25;101337.31;681408;28;1565;-54
2021/10/19 01:37:05;;;;;;;14.20;12.70;;;;;;;11.78;81.09;101327.72;681344;28;4547;-51
2021/10/19 01:37:26;;;;;;;15.40;12.33;;;;;;;11.71;81.44;101337.31;684314;28;1444;-50
2021/10/19 01:37:46;;;;;;;14.95;12.63;;;;;;;11.86;80.87;101320.75;683858;28;1195;-50
2021/10/19 01:38:10;;;;;;;13.93;12.03;;;;;;;11.85;80.34;101326.84;683926;28;1053;-53